createdAt,value
2022-09-04T00:00:14.686Z,11.27
2022-09-04T00:02:51.495Z,10.15
2022-09-04T00:05:36.580Z,9.60
2022-09-04T00:08:28.866Z,10.57
2022-09-04T00:11:18.984Z,9.25
2022-09-04T00:13:51.418Z,9.07
2022-09-04T00:16:20.546Z,10.18
2022-09-04T00:19:03.914Z,9.75
2022-09-04T00:21:49.992Z,8.75
2022-09-04T00:24:29.008Z,10.10
2022-09-04T00:27:24.276Z,9.10
2022-09-04T00:30:02.530Z,9.55
2022-09-04T00:32:48.473Z,10.32
2022-09-04T00:35:23.548Z,9.45
2022-09-04T00:38:06.410Z,11.05
2022-09-04T00:40:47.825Z,9.48
2022-09-04T00:43:37.021Z,11.65
2022-09-04T00:46:22.811Z,9.40
2022-09-04T00:49:16.690Z,9.52
2022-09-04T00:52:15.130Z,9.50
2022-09-04T00:55:10.819Z,10.13
2022-09-04T00:58:00.557Z,10.45
2022-09-04T01:00:28.989Z,10.40
2022-09-04T01:03:20.884Z,9.18
2022-09-04T01:06:19.167Z,11.02
2022-09-04T01:09:05.149Z,10.07
2022-09-04T01:11:35.787Z,10.23
2022-09-04T01:14:13.367Z,10.68
2022-09-04T01:16:47.722Z,7.82
2022-09-04T01:19:29.022Z,10.32
2022-09-04T01:22:06.797Z,8.73
2022-09-04T01:24:43.722Z,9.75
2022-09-04T01:27:17.337Z,11.75
2022-09-04T01:30:08.158Z,9.35
2022-09-04T01:33:17.671Z,9.10
2022-09-04T01:35:56.154Z,9.90
2022-09-04T01:38:41.958Z,9.88
2022-09-04T01:41:24.424Z,8.80
2022-09-04T01:43:52.101Z,9.15
2022-09-04T01:46:43.958Z,9.70
2022-09-04T01:49:20.335Z,9.55
2022-09-04T01:52:00.324Z,10.23
2022-09-04T01:54:45.978Z,9.75
2022-09-04T01:57:34.852Z,10.10
2022-09-04T02:00:10.306Z,9.68
2022-09-04T02:02:57.133Z,9.70
2022-09-04T02:05:31.100Z,9.63
2022-09-04T02:08:17.347Z,9.07
2022-09-04T02:10:59.627Z,10.10
2022-09-04T02:13:34.200Z,10.02
2022-09-04T02:16:20.093Z,10.40
2022-09-04T02:19:19.897Z,10.90
2022-09-04T02:21:57.997Z,11.43
2022-09-04T02:24:46.983Z,10.48
2022-09-04T02:27:49.945Z,11.48
2022-09-04T02:30:18.853Z,10.23
2022-09-04T02:33:08.457Z,11.15
2022-09-04T02:35:36.099Z,10.80
2022-09-04T02:38:31.547Z,11.45
2022-09-04T02:40:59.246Z,11.40
2022-09-04T02:43:41.661Z,12.90
2022-09-04T02:46:17.681Z,12.18
2022-09-04T02:49:18.463Z,9.82
2022-09-04T02:51:56.423Z,9.67
2022-09-04T02:54:53.092Z,13.05
2022-09-04T02:57:40.746Z,10.77
2022-09-04T03:00:21.257Z,11.65
2022-09-04T03:03:17.521Z,9.55
2022-09-04T03:05:58.877Z,9.83
2022-09-04T03:08:36.986Z,10.20
2022-09-04T03:11:17.521Z,10.87
2022-09-04T03:14:09.885Z,10.15
2022-09-04T03:16:41.555Z,10.77
2022-09-04T03:19:21.406Z,11.75
2022-09-04T03:22:04.184Z,10.73
2022-09-04T03:24:50.147Z,10.02
2022-09-04T03:27:19.076Z,9.65
2022-09-04T03:30:01.369Z,10.18
2022-09-04T03:32:52.739Z,10.10
2022-09-04T03:35:37.849Z,10.88
2022-09-04T03:38:15.728Z,11.38
2022-09-04T03:41:11.849Z,10.27
2022-09-04T03:43:57.000Z,9.38
2022-09-04T03:46:30.907Z,10.30
2022-09-04T03:49:07.421Z,12.02
2022-09-04T03:51:53.688Z,10.93
2022-09-04T03:54:43.282Z,11.40
2022-09-04T03:57:35.826Z,9.75
2022-09-04T04:00:11.305Z,11.02
2022-09-04T04:03:03.356Z,10.73
2022-09-04T04:05:53.122Z,10.70
2022-09-04T04:08:42.345Z,10.38
2022-09-04T04:11:21.419Z,11.60
2022-09-04T04:13:58.171Z,10.60
2022-09-04T04:16:34.913Z,11.70
2022-09-04T04:19:20.702Z,10.65
2022-09-04T04:22:07.394Z,10.73
2022-09-04T04:24:57.530Z,11.70
2022-09-04T04:28:01.679Z,10.55
2022-09-04T04:30:44.906Z,10.27
2022-09-04T04:33:22.450Z,10.02
2022-09-04T04:35:57.437Z,10.57
2022-09-04T04:39:02.264Z,10.45
2022-09-04T04:42:06.611Z,10.95
2022-09-04T04:45:05.060Z,11.93
2022-09-04T04:47:48.513Z,11.73
2022-09-04T04:50:21.320Z,11.00
2022-09-04T04:53:21.239Z,11.75
2022-09-04T04:55:52.114Z,10.02
2022-09-04T04:58:45.091Z,10.25
2022-09-04T05:01:36.058Z,9.90
2022-09-04T05:04:30.128Z,10.85
2022-09-04T05:07:07.473Z,9.27
2022-09-04T05:09:42.557Z,9.00
2022-09-04T05:12:35.043Z,9.23
2022-09-04T05:15:13.685Z,10.15
2022-09-04T05:17:54.927Z,9.63
2022-09-04T05:20:49.888Z,9.60
2022-09-04T05:23:32.095Z,11.80
2022-09-04T05:26:11.157Z,9.90
2022-09-04T05:28:55.106Z,8.15
2022-09-04T05:31:43.603Z,9.18
2022-09-04T05:34:59.703Z,8.97
2022-09-04T05:37:45.357Z,8.80
2022-09-04T05:40:44.823Z,7.85
2022-09-04T05:43:39.350Z,7.68
2022-09-04T05:46:32.098Z,7.50
2022-09-04T05:49:41.165Z,8.03
2022-09-04T05:52:45.485Z,9.02
2022-09-04T05:55:17.562Z,7.90
2022-09-04T05:57:56.735Z,9.32
2022-09-04T06:00:24.900Z,8.03
2022-09-04T06:03:14.845Z,8.93
2022-09-04T06:06:10.769Z,8.35
2022-09-04T06:08:51.192Z,10.10
2022-09-04T06:11:44.155Z,7.90
2022-09-04T06:14:21.853Z,7.30
2022-09-04T06:17:12.860Z,7.30
2022-09-04T06:20:12.512Z,7.20
2022-09-04T06:23:18.172Z,7.32
2022-09-04T06:25:59.121Z,7.30
2022-09-04T06:29:08.662Z,9.18
2022-09-04T06:32:04.501Z,7.82
2022-09-04T06:35:04.309Z,6.40
2022-09-04T06:38:10.056Z,7.43
2022-09-04T06:41:13.456Z,7.57
2022-09-04T06:44:08.139Z,7.70
2022-09-04T06:46:59.030Z,6.93
2022-09-04T06:50:02.003Z,7.20
2022-09-04T06:53:07.431Z,7.00
2022-09-04T06:56:02.574Z,6.78
2022-09-04T06:58:56.055Z,11.98
2022-09-04T07:01:48.365Z,8.57
2022-09-04T07:04:41.715Z,7.60
2022-09-04T07:07:19.078Z,7.97
2022-09-04T07:09:50.600Z,6.90
2022-09-04T07:12:53.510Z,17.27
2022-09-04T07:15:43.972Z,24.23
2022-09-04T07:18:34.524Z,8.65
2022-09-04T07:21:18.959Z,9.77
2022-09-04T07:23:55.796Z,9.40
2022-09-04T07:26:30.136Z,7.65
2022-09-04T07:28:57.995Z,7.80
2022-09-04T07:31:34.795Z,7.97
2022-09-04T07:34:39.886Z,7.93
2022-09-04T07:37:34.218Z,7.60
2022-09-04T07:40:18.174Z,8.33
2022-09-04T07:42:52.484Z,7.10
2022-09-04T07:45:31.623Z,6.53
2022-09-04T07:48:20.114Z,6.70
2022-09-04T07:51:11.539Z,8.43
2022-09-04T07:53:48.674Z,6.97
2022-09-04T07:56:46.265Z,7.12
2022-09-04T07:59:29.153Z,8.00
2022-09-04T08:02:26.565Z,6.75
2022-09-04T08:05:14.832Z,7.20
2022-09-04T08:07:54.783Z,8.05
2022-09-04T08:10:22.843Z,7.47
2022-09-04T08:12:57.186Z,7.47
2022-09-04T08:15:52.677Z,6.93
2022-09-04T08:18:53.924Z,8.15
2022-09-04T08:21:36.975Z,10.27
2022-09-04T08:24:44.364Z,7.47
2022-09-04T08:27:15.414Z,7.62
2022-09-04T08:30:08.452Z,7.20
2022-09-04T08:33:11.144Z,7.07
2022-09-04T08:35:56.841Z,7.18
2022-09-04T08:38:55.667Z,8.57
2022-09-04T08:41:29.638Z,7.35
2022-09-04T08:44:38.968Z,8.13
2022-09-04T08:47:06.614Z,8.73
2022-09-04T08:49:54.325Z,8.60
2022-09-04T08:52:40.363Z,7.93
2022-09-04T08:55:47.052Z,7.25
2022-09-04T08:58:47.859Z,8.17
2022-09-04T09:01:35.913Z,8.40
2022-09-04T09:04:44.094Z,6.93
2022-09-04T09:07:33.943Z,7.93
2022-09-04T09:10:20.669Z,8.48
2022-09-04T09:13:10.597Z,8.77
2022-09-04T09:16:02.768Z,7.28
2022-09-04T09:18:41.789Z,16.50
2022-09-04T09:21:13.305Z,8.13
2022-09-04T09:23:47.215Z,7.65
2022-09-04T09:26:26.899Z,9.27
2022-09-04T09:29:10.138Z,7.80
2022-09-04T09:32:03.779Z,8.80
2022-09-04T09:35:08.966Z,6.82
2022-09-04T09:38:00.008Z,9.87
2022-09-04T09:40:43.364Z,7.57
2022-09-04T09:43:24.508Z,7.72
2022-09-04T09:46:29.719Z,7.73
2022-09-04T09:49:03.699Z,8.70
2022-09-04T09:52:30.710Z,7.22
2022-09-04T09:55:16.995Z,8.10
2022-09-04T09:58:07.687Z,7.80
2022-09-04T10:01:08.338Z,8.50
2022-09-04T10:03:55.433Z,8.75
2022-09-04T10:06:53.015Z,7.53
2022-09-04T10:09:59.333Z,9.30
2022-09-04T10:12:50.332Z,7.90
2022-09-04T10:15:48.507Z,9.35
2022-09-04T10:19:07.418Z,8.55
2022-09-04T10:22:00.262Z,7.75
2022-09-04T10:24:44.404Z,7.68
2022-09-04T10:27:34.866Z,7.28
2022-09-04T10:30:10.700Z,6.90
2022-09-04T10:32:51.353Z,8.30
2022-09-04T10:35:25.481Z,9.32
2022-09-04T10:38:34.764Z,8.13
2022-09-04T10:41:30.272Z,8.60
2022-09-04T10:44:20.126Z,7.87
2022-09-04T10:47:07.659Z,8.20
2022-09-04T10:50:17.515Z,8.87
2022-09-04T10:53:31.389Z,10.18
2022-09-04T10:56:21.101Z,9.98
2022-09-04T10:58:58.282Z,10.15
2022-09-04T11:01:38.186Z,10.23
2022-09-04T11:04:49.711Z,8.77
2022-09-04T11:07:46.899Z,9.55
2022-09-04T11:10:36.952Z,8.90
2022-09-04T11:13:55.246Z,8.73
2022-09-04T11:16:37.267Z,8.68
2022-09-04T11:19:34.007Z,9.30
2022-09-04T11:22:28.493Z,9.30
2022-09-04T11:25:43.030Z,8.98
2022-09-04T11:28:20.483Z,7.72
2022-09-04T11:30:54.215Z,7.60
2022-09-04T11:34:01.694Z,7.10
2022-09-04T11:36:43.724Z,7.68
2022-09-04T11:39:37.678Z,7.93
2022-09-04T11:42:26.829Z,8.80
2022-09-04T11:45:21.359Z,7.37
2022-09-04T11:47:58.402Z,8.70
2022-09-04T11:51:03.775Z,7.62
2022-09-04T11:53:43.644Z,7.87
2022-09-04T11:56:33.246Z,8.15
2022-09-04T11:59:10.682Z,8.30
2022-09-04T12:01:47.699Z,7.35
2022-09-04T12:04:57.032Z,6.93
2022-09-04T12:08:04.757Z,7.82
2022-09-04T12:10:56.824Z,7.07
2022-09-04T12:13:44.363Z,7.93
2022-09-04T12:16:44.596Z,7.50
2022-09-04T12:19:49.137Z,7.12
2022-09-04T12:22:36.949Z,6.50
2022-09-04T12:25:32.419Z,7.62
2022-09-04T12:28:29.337Z,7.37
2022-09-04T12:31:10.900Z,7.25
2022-09-04T12:34:19.659Z,6.62
2022-09-04T12:37:20.234Z,6.50
2022-09-04T12:40:07.324Z,6.97
2022-09-04T12:42:43.422Z,7.70
2022-09-04T12:45:46.065Z,6.45
2022-09-04T12:48:33.688Z,5.85
2022-09-04T12:51:14.301Z,6.10
2022-09-04T12:54:04.823Z,6.82
2022-09-04T12:56:49.011Z,7.50
2022-09-04T12:59:33.800Z,7.03
2022-09-04T13:02:24.473Z,7.37
2022-09-04T13:05:30.699Z,7.78
2022-09-04T13:07:59.220Z,6.75
2022-09-04T13:10:45.002Z,6.03
2022-09-04T13:13:23.485Z,5.93
2022-09-04T13:16:09.892Z,6.87
2022-09-04T13:18:41.306Z,6.18
2022-09-04T13:21:25.533Z,6.20
2022-09-04T13:24:11.824Z,6.57
2022-09-04T13:27:00.789Z,6.68
2022-09-04T13:29:41.883Z,6.05
2022-09-04T13:32:18.889Z,7.80
2022-09-04T13:35:41.342Z,6.50
2022-09-04T13:38:38.605Z,6.90
2022-09-04T13:41:18.811Z,7.43
2022-09-04T13:44:00.942Z,6.12
2022-09-04T13:46:35.436Z,6.80
2022-09-04T13:49:28.046Z,6.40
2022-09-04T13:52:34.527Z,5.85
2022-09-04T13:55:21.694Z,5.82
2022-09-04T13:58:14.161Z,5.25
2022-09-04T14:01:00.934Z,6.43
2022-09-04T14:03:47.705Z,5.70
2022-09-04T14:06:20.972Z,6.70
2022-09-04T14:08:57.949Z,5.28
2022-09-04T14:11:54.579Z,5.32
2022-09-04T14:14:43.807Z,6.53
2022-09-04T14:17:14.380Z,7.12
2022-09-04T14:20:00.062Z,5.57
2022-09-04T14:22:40.023Z,6.20
2022-09-04T14:25:17.591Z,7.15
2022-09-04T14:27:55.591Z,5.87
2022-09-04T14:30:25.192Z,6.55
2022-09-04T14:33:35.664Z,6.70
2022-09-04T14:36:16.762Z,5.70
2022-09-04T14:39:04.517Z,5.68
2022-09-04T14:41:45.232Z,7.23
2022-09-04T14:44:22.724Z,5.68
2022-09-04T14:47:02.712Z,7.60
2022-09-04T14:49:34.700Z,5.93
2022-09-04T14:52:21.910Z,5.62
2022-09-04T14:55:01.328Z,6.28
2022-09-04T14:57:44.753Z,7.20
2022-09-04T15:00:36.970Z,5.95
2022-09-04T15:03:23.160Z,7.53
2022-09-04T15:05:58.335Z,8.48
2022-09-04T15:08:40.200Z,6.65
2022-09-04T15:11:13.700Z,6.28
2022-09-04T15:14:00.310Z,7.55
2022-09-04T15:16:47.030Z,6.37
2022-09-04T15:19:36.101Z,6.43
2022-09-04T15:22:11.714Z,6.07
2022-09-04T15:25:04.296Z,6.95
2022-09-04T15:27:50.190Z,5.70
2022-09-04T15:30:29.634Z,7.68
2022-09-04T15:33:18.944Z,5.93
2022-09-04T15:36:04.531Z,8.15
2022-09-04T15:38:35.485Z,7.07
2022-09-04T15:41:22.304Z,6.00
2022-09-04T15:43:53.728Z,7.65
2022-09-04T15:46:40.977Z,7.50
2022-09-04T15:49:42.418Z,5.72
2022-09-04T15:52:25.413Z,6.30
2022-09-04T15:55:25.695Z,7.20
2022-09-04T15:58:53.470Z,6.07
2022-09-04T16:02:01.213Z,7.07
2022-09-04T16:04:57.738Z,15.57
2022-09-04T16:07:34.325Z,7.10
2022-09-04T16:10:19.111Z,6.72
2022-09-04T16:13:25.445Z,7.28
2022-09-04T16:16:10.126Z,6.18
2022-09-04T16:18:50.047Z,5.90
2022-09-04T16:21:29.141Z,7.07
2022-09-04T16:24:18.690Z,7.18
2022-09-04T16:26:53.435Z,6.87
2022-09-04T16:29:26.547Z,6.68
2022-09-04T16:31:57.432Z,6.10
2022-09-04T16:34:55.059Z,6.07
2022-09-04T16:37:31.795Z,6.77
2022-09-04T16:40:32.172Z,6.35
2022-09-04T16:43:03.136Z,7.57
2022-09-04T16:46:06.546Z,6.25
2022-09-04T16:48:54.672Z,7.87
2022-09-04T16:52:16.334Z,6.10
2022-09-04T16:55:03.626Z,6.35
2022-09-04T16:58:07.462Z,6.18
2022-09-04T17:01:14.162Z,7.50
2022-09-04T17:04:14.955Z,7.90
2022-09-04T17:07:04.394Z,8.27
2022-09-04T17:09:38.748Z,7.35
2022-09-04T17:12:22.079Z,8.20
2022-09-04T17:14:59.444Z,6.35
2022-09-04T17:17:32.338Z,8.00
2022-09-04T17:20:22.081Z,7.57
2022-09-04T17:28:55.422Z,6.15
2022-09-04T17:29:18.362Z,6.35
2022-09-04T17:29:43.114Z,7.32
2022-09-04T17:34:07.058Z,6.55
2022-09-04T17:40:52.230Z,9.52
2022-09-04T17:40:57.404Z,8.43
2022-09-04T17:42:08.455Z,7.45
2022-09-04T17:44:46.977Z,6.40
2022-09-04T17:47:34.771Z,8.45
2022-09-04T17:50:03.175Z,7.65
2022-09-04T17:52:53.020Z,6.77
2022-09-04T17:55:23.425Z,6.55
2022-09-04T17:58:06.521Z,6.95
2022-09-04T18:00:51.468Z,7.45
2022-09-04T18:03:27.377Z,8.18
2022-09-04T18:06:08.122Z,6.13
2022-09-04T18:09:11.115Z,7.65
2022-09-04T18:12:00.211Z,8.27
2022-09-04T18:14:38.348Z,6.28
2022-09-04T18:17:23.887Z,7.93
2022-09-04T18:19:58.891Z,8.63
2022-09-04T18:22:46.311Z,10.15
2022-09-04T18:25:44.805Z,7.35
2022-09-04T18:28:22.712Z,8.02
2022-09-04T18:37:07.125Z,8.45
2022-09-04T18:37:25.322Z,8.23
2022-09-04T18:37:46.598Z,7.47
2022-09-04T18:41:02.147Z,7.95
2022-09-04T18:50:29.725Z,9.13
2022-09-04T18:50:31.177Z,8.05
2022-09-04T18:50:32.727Z,8.93
2022-09-04T18:52:19.059Z,8.57
2022-09-04T18:54:57.367Z,10.07
2022-09-04T18:57:35.072Z,7.47
2022-09-04T19:00:12.959Z,7.40
2022-09-04T19:02:53.970Z,8.13
2022-09-04T19:05:27.160Z,7.53
2022-09-04T19:08:05.767Z,8.70
2022-09-04T19:10:51.380Z,9.98
2022-09-04T19:13:49.485Z,7.47
2022-09-04T19:16:38.940Z,8.87
2022-09-04T19:19:17.571Z,8.40
2022-09-04T19:21:57.894Z,7.37
2022-09-04T19:24:52.023Z,7.68
2022-09-04T19:27:32.244Z,7.90
2022-09-04T19:30:25.092Z,8.33
2022-09-04T19:33:03.390Z,8.50
2022-09-04T19:35:32.666Z,7.82
2022-09-04T19:42:54.344Z,9.40
2022-09-04T19:45:57.875Z,8.98
2022-09-04T19:46:15.955Z,8.02
2022-09-04T19:47:51.800Z,8.75
2022-09-04T19:53:18.952Z,9.57
2022-09-04T19:53:36.358Z,8.75
2022-09-04T19:56:15.627Z,8.50
2022-09-04T19:58:53.003Z,8.35
2022-09-04T20:01:26.659Z,8.30
2022-09-04T20:04:10.674Z,8.15
2022-09-04T20:06:47.751Z,10.27
2022-09-04T20:09:26.412Z,8.73
2022-09-04T20:12:40.443Z,8.97
2022-09-04T20:15:18.683Z,8.60
2022-09-04T20:18:10.662Z,7.65
2022-09-04T20:20:47.969Z,7.75
2022-09-04T20:23:37.636Z,7.35
2022-09-04T20:26:09.668Z,7.68
2022-09-04T20:29:16.543Z,7.77
2022-09-04T20:31:51.842Z,7.65
2022-09-04T20:34:29.974Z,10.77
2022-09-04T20:37:20.518Z,8.70
2022-09-04T20:40:15.203Z,7.82
2022-09-04T20:42:56.523Z,9.50
2022-09-04T20:47:11.362Z,7.63
2022-09-04T20:52:51.809Z,7.05
2022-09-04T20:52:52.230Z,8.65
2022-09-04T20:54:50.988Z,8.55
2022-09-04T21:02:23.137Z,8.35
2022-09-04T21:03:23.715Z,9.60
2022-09-04T21:03:57.391Z,11.55
2022-09-04T21:06:34.881Z,12.90
2022-09-04T21:09:11.038Z,11.00
2022-09-04T21:11:51.953Z,10.63
2022-09-04T21:14:44.909Z,9.15
2022-09-04T21:17:37.176Z,7.57
2022-09-04T21:20:16.788Z,8.75
2022-09-04T21:23:09.820Z,8.32
2022-09-04T21:26:22.008Z,8.50
2022-09-04T21:29:09.114Z,7.67
2022-09-04T21:32:00.073Z,7.82
2022-09-04T21:34:53.972Z,8.35
2022-09-04T21:38:17.689Z,8.20
2022-09-04T21:41:03.489Z,8.25
2022-09-04T21:44:11.183Z,9.13
2022-09-04T21:47:08.734Z,8.48
2022-09-04T21:49:42.439Z,8.50
2022-09-04T21:52:24.646Z,8.98
2022-09-04T21:56:38.101Z,7.82
2022-09-04T22:02:31.024Z,9.60
2022-09-04T22:02:36.660Z,8.10
2022-09-04T22:04:17.197Z,12.77
2022-09-04T22:10:26.219Z,12.93
2022-09-04T22:13:46.421Z,14.63
2022-09-04T22:13:46.653Z,12.30
2022-09-04T22:16:01.827Z,13.10
2022-09-04T22:19:16.288Z,13.98
2022-09-04T22:22:10.364Z,12.37
2022-09-04T22:25:06.371Z,10.85
2022-09-04T22:28:07.479Z,10.30
2022-09-04T22:31:11.319Z,10.15
2022-09-04T22:34:17.572Z,9.27
2022-09-04T22:37:23.110Z,8.10
2022-09-04T22:40:12.675Z,8.23
2022-09-04T22:43:02.530Z,7.05
2022-09-04T22:45:39.427Z,8.48
2022-09-04T22:48:49.159Z,8.82
2022-09-04T22:51:43.601Z,7.28
2022-09-04T22:54:23.265Z,7.80
2022-09-04T22:57:06.289Z,8.30
2022-09-04T22:59:55.572Z,7.62
2022-09-04T23:02:54.146Z,8.83
2022-09-04T23:05:39.977Z,8.38
2022-09-04T23:13:41.862Z,7.03
2022-09-04T23:13:49.607Z,8.45
2022-09-04T23:14:22.574Z,8.30
2022-09-04T23:17:05.198Z,7.68
2022-09-04T23:23:36.405Z,7.82
2022-09-04T23:26:50.176Z,7.80
2022-09-04T23:26:51.090Z,7.65
2022-09-04T23:29:41.096Z,9.88
2022-09-04T23:32:40.437Z,7.05
2022-09-04T23:35:40.588Z,7.57
2022-09-04T23:38:26.580Z,8.60
2022-09-04T23:41:25.420Z,7.72
2022-09-04T23:44:32.050Z,8.97
2022-09-04T23:47:46.864Z,7.72
2022-09-04T23:50:35.045Z,8.07
2022-09-04T23:53:08.512Z,8.40
2022-09-04T23:55:49.114Z,9.80
2022-09-04T23:59:03.181Z,7.60
